createdAt,value
2018-09-12T00:01:11.186Z,94.70
2018-09-12T00:03:39.574Z,94.90
2018-09-12T00:06:08.040Z,94.90
2018-09-12T00:08:36.416Z,94.90
2018-09-12T00:11:04.849Z,95.00
2018-09-12T00:13:33.246Z,95.00
2018-09-12T00:16:01.702Z,95.20
2018-09-12T00:18:30.140Z,95.40
2018-09-12T00:20:58.567Z,95.60
2018-09-12T00:23:26.954Z,95.70
2018-09-12T00:25:55.398Z,95.80
2018-09-12T00:28:23.796Z,95.90
2018-09-12T00:30:52.162Z,96.40
2018-09-12T00:33:20.543Z,96.10
2018-09-12T00:35:48.951Z,96.10
2018-09-12T00:38:17.769Z,96.20
2018-09-12T00:40:46.183Z,96.20
2018-09-12T00:43:14.616Z,96.20
2018-09-12T00:45:43.017Z,96.30
2018-09-12T00:48:11.422Z,96.00
2018-09-12T00:50:40.278Z,96.00
2018-09-12T00:53:08.697Z,96.10
2018-09-12T00:55:37.221Z,95.80
2018-09-12T00:58:05.709Z,95.70
2018-09-12T01:00:34.083Z,95.90
2018-09-12T01:03:03.023Z,95.70
2018-09-12T01:05:32.355Z,95.70
2018-09-12T01:08:00.729Z,95.80
2018-09-12T01:10:29.113Z,95.60
2018-09-12T01:12:57.629Z,95.60
2018-09-12T01:15:26.020Z,95.70
2018-09-12T01:17:54.479Z,95.60
2018-09-12T01:20:26.742Z,95.60
2018-09-12T01:22:55.150Z,95.70
2018-09-12T01:25:24.113Z,95.80
2018-09-12T01:27:57.066Z,96.40
2018-09-12T01:30:26.268Z,96.30
2018-09-12T01:32:56.175Z,96.60
2018-09-12T01:35:24.567Z,97.00
2018-09-12T01:37:52.997Z,96.70
2018-09-12T01:40:21.392Z,96.70
2018-09-12T01:42:50.139Z,96.80
2018-09-12T01:45:19.511Z,96.80
2018-09-12T01:47:48.345Z,96.80
2018-09-12T01:50:16.775Z,97.00
2018-09-12T01:52:45.844Z,97.00
2018-09-12T01:55:14.333Z,97.30
2018-09-12T01:57:42.900Z,97.80
2018-09-12T02:00:13.444Z,97.50
2018-09-12T02:02:42.100Z,97.60
2018-09-12T02:05:10.637Z,97.40
2018-09-12T02:07:40.883Z,97.40
2018-09-12T02:10:11.058Z,97.70
2018-09-12T02:12:39.504Z,97.80
2018-09-12T02:15:07.947Z,98.10
2018-09-12T02:17:36.281Z,97.70
2018-09-12T02:20:05.218Z,97.50
2018-09-12T02:22:34.137Z,97.80
2018-09-12T02:25:02.538Z,97.90
2018-09-12T02:27:30.912Z,97.80
2018-09-12T02:29:59.308Z,97.80
2018-09-12T02:32:27.725Z,98.00
2018-09-12T02:34:56.148Z,98.20
2018-09-12T02:37:24.703Z,98.20
2018-09-12T02:39:53.073Z,98.40
2018-09-12T02:42:21.454Z,98.20
2018-09-12T02:44:49.861Z,98.30
2018-09-12T02:47:23.643Z,98.30
2018-09-12T02:49:52.052Z,98.50
2018-09-12T02:52:20.469Z,98.30
2018-09-12T02:54:48.839Z,97.90
2018-09-12T02:57:17.277Z,98.00
2018-09-12T02:59:45.723Z,98.10
2018-09-12T03:02:14.121Z,98.30
2018-09-12T03:04:51.765Z,98.30
2018-09-12T03:07:20.161Z,98.60
2018-09-12T03:09:48.574Z,98.50
2018-09-12T03:12:17.080Z,98.80
2018-09-12T03:14:45.480Z,98.70
2018-09-12T03:17:14.547Z,98.70
2018-09-12T03:19:43.007Z,99.00
2018-09-12T03:22:12.011Z,99.00
2018-09-12T03:24:40.386Z,99.00
2018-09-12T03:27:08.788Z,99.30
2018-09-12T03:29:37.206Z,99.00
2018-09-12T03:32:05.666Z,98.80
2018-09-12T03:34:34.061Z,98.90
2018-09-12T03:37:02.480Z,99.00
2018-09-12T03:39:30.838Z,98.90
2018-09-12T03:41:59.210Z,99.30
2018-09-12T03:44:27.610Z,99.30
2018-09-12T03:46:55.992Z,99.50
2018-09-12T03:49:24.383Z,99.60
2018-09-12T03:51:52.741Z,99.60
2018-09-12T03:54:21.153Z,99.50
2018-09-12T03:56:49.482Z,99.50
2018-09-12T03:59:17.888Z,99.50
2018-09-12T04:01:46.308Z,99.30
2018-09-12T04:04:14.725Z,99.20
2018-09-12T04:06:43.109Z,99.20
2018-09-12T04:09:11.506Z,99.30
2018-09-12T04:11:39.882Z,99.10
2018-09-12T04:14:08.506Z,99.40
2018-09-12T04:16:36.910Z,99.20
2018-09-12T04:19:05.343Z,99.50
2018-09-12T04:21:34.349Z,99.50
2018-09-12T04:24:02.754Z,99.50
2018-09-12T04:26:31.129Z,99.90
2018-09-12T04:28:59.521Z,99.70
2018-09-12T04:31:27.975Z,99.90
2018-09-12T04:33:56.379Z,99.70
2018-09-12T04:36:24.790Z,99.90
2018-09-12T04:38:53.198Z,99.90
2018-09-12T04:41:21.567Z,99.90
2018-09-12T04:43:49.988Z,99.90
2018-09-12T04:46:18.367Z,99.90
2018-09-12T04:48:46.798Z,99.90
2018-09-12T04:51:15.187Z,99.90
2018-09-12T04:53:43.617Z,99.90
2018-09-12T04:56:12.079Z,99.90
2018-09-12T04:58:40.471Z,99.70
2018-09-12T05:01:08.856Z,99.20
2018-09-12T05:03:37.238Z,98.90
2018-09-12T05:06:05.613Z,98.40
2018-09-12T05:08:34.027Z,98.00
2018-09-12T05:11:02.656Z,97.80
2018-09-12T05:13:31.053Z,97.50
2018-09-12T05:15:59.447Z,97.80
2018-09-12T05:18:27.787Z,97.00
2018-09-12T05:20:56.118Z,97.40
2018-09-12T05:23:24.467Z,96.80
2018-09-12T05:25:52.781Z,96.70
2018-09-12T05:28:21.179Z,96.80
2018-09-12T05:30:49.664Z,96.30
2018-09-12T05:33:17.986Z,96.20
2018-09-12T05:35:46.345Z,95.60
2018-09-12T05:38:14.704Z,95.30
2018-09-12T05:40:43.604Z,95.30
2018-09-12T05:43:11.942Z,95.40
2018-09-12T05:45:40.324Z,94.30
2018-09-12T05:48:09.052Z,94.00
2018-09-12T05:50:37.503Z,94.20
2018-09-12T05:53:05.890Z,94.50
2018-09-12T05:55:34.318Z,93.00
2018-09-12T05:58:02.654Z,92.40
2018-09-12T06:00:30.995Z,92.20
2018-09-12T06:02:59.406Z,92.30
2018-09-12T06:05:27.745Z,91.50
2018-09-12T06:07:58.414Z,91.70
2018-09-12T06:10:26.951Z,90.70
2018-09-12T06:12:55.335Z,91.10
2018-09-12T06:15:23.708Z,90.50
2018-09-12T06:17:52.050Z,88.80
2018-09-12T06:20:20.427Z,87.60
2018-09-12T06:22:48.782Z,88.90
2018-09-12T06:25:17.165Z,89.60
2018-09-12T06:27:45.525Z,88.80
2018-09-12T06:30:13.924Z,86.60
2018-09-12T06:32:42.259Z,86.20
2018-09-12T06:35:10.599Z,86.10
2018-09-12T06:37:39.127Z,86.50
2018-09-12T06:40:07.859Z,86.80
2018-09-12T06:42:36.213Z,85.90
2018-09-12T06:45:04.617Z,86.60
2018-09-12T06:47:33.029Z,85.80
2018-09-12T06:50:01.553Z,82.60
2018-09-12T06:52:29.907Z,81.70
2018-09-12T06:54:58.254Z,78.60
2018-09-12T06:57:26.609Z,77.10
2018-09-12T06:59:54.961Z,77.80
2018-09-12T07:02:23.299Z,79.80
2018-09-12T07:04:51.663Z,78.40
2018-09-12T07:07:20.039Z,79.70
2018-09-12T07:09:48.431Z,79.70
2018-09-12T07:12:16.795Z,76.80
2018-09-12T07:14:45.161Z,77.50
2018-09-12T07:17:13.543Z,74.30
2018-09-12T07:19:41.949Z,75.90
2018-09-12T07:22:10.281Z,76.30
2018-09-12T07:24:38.670Z,74.00
2018-09-12T07:27:06.999Z,71.40
2018-09-12T07:29:35.445Z,70.90
2018-09-12T07:32:03.804Z,69.40
2018-09-12T07:34:32.186Z,69.60
2018-09-12T07:37:00.576Z,70.70
2018-09-12T07:39:28.893Z,71.00
2018-09-12T07:41:57.274Z,66.70
2018-09-12T07:44:25.611Z,69.90
2018-09-12T07:46:53.972Z,67.30
2018-09-12T07:49:22.394Z,66.40
2018-09-12T07:51:51.012Z,66.00
2018-09-12T07:54:19.383Z,64.20
2018-09-12T07:56:47.833Z,62.80
2018-09-12T07:59:16.191Z,61.90
2018-09-12T08:01:44.538Z,63.60
2018-09-12T08:04:12.899Z,62.60
2018-09-12T08:06:41.325Z,62.90
2018-09-12T08:09:11.791Z,61.80
2018-09-12T08:11:40.183Z,62.10
2018-09-12T08:14:08.532Z,63.10
2018-09-12T08:16:36.901Z,61.50
2018-09-12T08:19:05.350Z,63.40
2018-09-12T08:21:33.776Z,64.00
2018-09-12T08:24:02.135Z,61.60
2018-09-12T08:26:30.521Z,64.10
2018-09-12T08:28:58.979Z,62.20
2018-09-12T08:31:27.927Z,61.50
2018-09-12T08:33:56.339Z,59.50
2018-09-12T08:36:24.787Z,59.70
2018-09-12T08:38:53.181Z,59.50
2018-09-12T08:41:21.643Z,61.20
2018-09-12T08:43:50.031Z,61.10
2018-09-12T08:46:18.432Z,60.30
2018-09-12T08:48:46.803Z,59.40
2018-09-12T08:51:15.179Z,58.10
2018-09-12T08:53:43.584Z,60.70
2018-09-12T08:56:11.980Z,63.20
2018-09-12T08:58:40.357Z,61.90
2018-09-12T09:01:08.736Z,61.30
2018-09-12T09:03:37.115Z,57.20
2018-09-12T09:06:05.593Z,56.20
2018-09-12T09:08:33.999Z,55.90
2018-09-12T09:11:02.351Z,58.20
2018-09-12T09:13:30.749Z,58.60
2018-09-12T09:15:59.148Z,57.40
2018-09-12T09:18:27.530Z,56.40
2018-09-12T09:20:55.908Z,53.00
2018-09-12T09:23:24.299Z,52.30
2018-09-12T09:25:52.767Z,53.70
2018-09-12T09:28:21.118Z,54.30
2018-09-12T09:30:49.480Z,52.20
2018-09-12T09:33:17.879Z,51.20
2018-09-12T09:35:46.273Z,49.90
2018-09-12T09:38:14.648Z,51.30
2018-09-12T09:40:42.964Z,52.60
2018-09-12T09:43:11.394Z,53.00
2018-09-12T09:45:39.728Z,53.80
2018-09-12T09:48:08.199Z,52.70
2018-09-12T09:50:36.524Z,50.80
2018-09-12T09:53:04.958Z,51.00
2018-09-12T09:55:33.320Z,50.50
2018-09-12T09:58:01.685Z,50.20
2018-09-12T10:00:35.369Z,53.50
2018-09-12T10:03:09.112Z,50.70
2018-09-12T10:05:42.822Z,49.60
2018-09-12T10:08:16.552Z,49.80
2018-09-12T10:10:44.904Z,51.00
2018-09-12T10:13:13.265Z,50.20
2018-09-12T10:15:41.820Z,50.40
2018-09-12T10:18:11.138Z,50.10
2018-09-12T10:20:39.504Z,49.10
2018-09-12T10:23:07.881Z,49.00
2018-09-12T10:25:36.314Z,46.60
2018-09-12T10:28:04.703Z,46.10
2018-09-12T10:30:33.072Z,46.50
2018-09-12T10:33:01.406Z,46.20
2018-09-12T10:35:29.764Z,46.50
2018-09-12T10:37:58.302Z,46.40
2018-09-12T10:40:26.665Z,45.60
2018-09-12T10:42:55.096Z,45.80
2018-09-12T10:45:23.465Z,45.90
2018-09-12T10:47:51.818Z,44.50
2018-09-12T10:50:20.192Z,44.80
2018-09-12T10:52:48.630Z,44.00
2018-09-12T10:55:17.027Z,45.10
2018-09-12T10:57:45.355Z,46.40
2018-09-12T11:00:13.709Z,44.50
2018-09-12T11:02:42.149Z,44.10
2018-09-12T11:05:10.535Z,44.30
2018-09-12T11:07:40.107Z,43.50
2018-09-12T11:10:08.473Z,44.10
2018-09-12T11:12:36.846Z,44.30
2018-09-12T11:15:05.583Z,44.40
2018-09-12T11:17:33.915Z,44.80
2018-09-12T11:20:02.415Z,44.10
2018-09-12T11:22:30.813Z,44.00
2018-09-12T11:24:59.205Z,44.80
2018-09-12T11:27:27.663Z,45.10
2018-09-12T11:29:56.087Z,45.10
2018-09-12T11:32:24.515Z,44.30
2018-09-12T11:34:52.872Z,43.10
2018-09-12T11:37:22.552Z,43.60
2018-09-12T11:39:50.875Z,44.30
2018-09-12T11:42:19.269Z,44.70
2018-09-12T11:44:47.639Z,44.00
2018-09-12T11:47:15.999Z,43.30
2018-09-12T11:49:44.386Z,43.20
2018-09-12T11:52:12.765Z,42.70
2018-09-12T11:54:41.724Z,42.10
2018-09-12T11:57:11.006Z,41.50
2018-09-12T11:59:39.509Z,43.30
2018-09-12T12:02:08.038Z,43.30
2018-09-12T12:04:36.496Z,44.40
2018-09-12T12:07:05.622Z,43.50
2018-09-12T12:09:34.074Z,45.90
2018-09-12T12:12:02.572Z,44.50
2018-09-12T12:14:31.190Z,42.70
2018-09-12T12:16:59.725Z,43.50
2018-09-12T12:19:28.195Z,42.20
2018-09-12T12:21:56.676Z,43.60
2018-09-12T12:24:25.229Z,43.80
2018-09-12T12:26:54.778Z,43.60
2018-09-12T12:29:23.311Z,44.60
2018-09-12T12:31:51.859Z,45.30
2018-09-12T12:34:20.395Z,46.30
2018-09-12T12:36:49.821Z,44.70
2018-09-12T12:39:18.359Z,43.90
2018-09-12T12:41:47.035Z,42.60
2018-09-12T12:44:15.527Z,43.60
2018-09-12T12:46:44.655Z,43.30
2018-09-12T12:49:13.143Z,44.70
2018-09-12T12:51:42.021Z,44.00
2018-09-12T12:54:12.040Z,43.90
2018-09-12T12:56:41.237Z,42.70
2018-09-12T12:59:09.767Z,43.30
2018-09-12T13:01:38.321Z,43.30
2018-09-12T13:04:06.803Z,42.90
2018-09-12T13:06:37.141Z,42.60
2018-09-12T13:09:08.067Z,42.20
2018-09-12T13:11:37.013Z,42.00
2018-09-12T13:14:05.577Z,42.60
2018-09-12T13:16:34.079Z,43.10
2018-09-12T13:19:04.979Z,43.40
2018-09-12T13:21:35.806Z,44.40
2018-09-12T13:24:08.401Z,43.90
2018-09-12T13:26:52.603Z,44.60
2018-09-12T13:29:27.519Z,44.40
2018-09-12T13:32:21.357Z,44.70
2018-09-12T13:34:50.366Z,45.20
2018-09-12T13:37:29.265Z,45.70
2018-09-12T13:39:57.723Z,45.90
2018-09-12T13:42:26.253Z,46.20
2018-09-12T13:44:57.204Z,45.80
2018-09-12T13:47:25.705Z,46.10
2018-09-12T13:49:56.677Z,46.20
2018-09-12T13:52:26.556Z,46.30
2018-09-12T13:54:56.116Z,46.40
2018-09-12T13:57:24.634Z,46.00
2018-09-12T13:59:53.124Z,45.60
2018-09-12T14:02:22.539Z,45.60
2018-09-12T14:04:51.014Z,46.00
2018-09-12T14:07:20.909Z,46.50
2018-09-12T14:09:49.389Z,46.30
2018-09-12T14:12:20.822Z,46.30
2018-09-12T14:14:50.276Z,46.40
2018-09-12T14:17:18.728Z,46.10
2018-09-12T14:19:47.225Z,45.90
2018-09-12T14:22:15.778Z,45.90
2018-09-12T14:24:44.244Z,46.70
2018-09-12T14:27:12.721Z,46.30
2018-09-12T14:29:41.380Z,46.40
2018-09-12T14:32:09.998Z,45.70
2018-09-12T14:34:38.909Z,46.60
2018-09-12T14:37:07.506Z,47.20
2018-09-12T14:39:36.012Z,46.50
2018-09-12T14:42:04.527Z,46.70
2018-09-12T14:44:32.991Z,46.60
2018-09-12T14:47:01.477Z,47.30
2018-09-12T14:49:29.983Z,47.20
2018-09-12T14:51:59.152Z,47.10
2018-09-12T14:54:27.677Z,47.50
2018-09-12T14:56:56.239Z,47.70
2018-09-12T14:59:24.793Z,47.60
2018-09-12T15:01:55.125Z,47.60
2018-09-12T15:04:24.247Z,47.90
2018-09-12T15:06:53.664Z,47.80
2018-09-12T15:09:22.806Z,47.90
2018-09-12T15:11:51.295Z,48.80
2018-09-12T15:14:19.878Z,48.20
2018-09-12T15:16:48.511Z,47.30
2018-09-12T15:19:17.310Z,47.30
2018-09-12T15:21:46.842Z,47.60
2018-09-12T15:24:17.148Z,48.10
2018-09-12T15:26:46.253Z,49.10
2018-09-12T15:29:14.769Z,48.90
2018-09-12T15:31:43.292Z,48.80
2018-09-12T15:34:12.357Z,49.40
2018-09-12T15:36:40.985Z,49.20
2018-09-12T15:39:10.799Z,48.80
2018-09-12T15:41:39.437Z,49.60
2018-09-12T15:44:07.976Z,50.70
2018-09-12T15:46:36.731Z,50.60
2018-09-12T15:49:05.383Z,50.70
2018-09-12T15:51:34.628Z,50.80
2018-09-12T15:54:03.129Z,51.50
2018-09-12T15:56:31.545Z,51.00
2018-09-12T15:58:59.977Z,51.20
2018-09-12T16:01:29.300Z,52.60
2018-09-12T16:03:57.770Z,52.50
2018-09-12T16:06:26.217Z,51.90
2018-09-12T16:08:54.649Z,52.00
2018-09-12T16:11:23.047Z,52.50
2018-09-12T16:13:51.943Z,53.40
2018-09-12T16:16:20.777Z,53.30
2018-09-12T16:18:49.236Z,53.90
2018-09-12T16:21:18.254Z,54.10
2018-09-12T16:23:46.986Z,54.20
2018-09-12T16:26:15.419Z,54.30
2018-09-12T16:28:45.502Z,55.30
2018-09-12T16:31:14.078Z,55.10
2018-09-12T16:33:42.812Z,54.90
2018-09-12T16:36:12.520Z,55.10
2018-09-12T16:38:41.010Z,56.60
2018-09-12T16:41:09.455Z,55.90
2018-09-12T16:43:37.927Z,56.30
2018-09-12T16:46:06.466Z,57.00
2018-09-12T16:48:35.025Z,57.50
2018-09-12T16:51:03.416Z,57.70
2018-09-12T16:53:31.872Z,59.60
2018-09-12T16:56:01.453Z,61.70
2018-09-12T16:58:29.939Z,63.30
2018-09-12T17:00:58.397Z,64.60
2018-09-12T17:03:26.805Z,66.30
2018-09-12T17:05:55.226Z,68.00
2018-09-12T17:08:23.781Z,68.90
2018-09-12T17:10:52.231Z,70.40
2018-09-12T17:13:20.671Z,71.60
2018-09-12T17:15:49.654Z,72.50
2018-09-12T17:18:18.197Z,73.70
2018-09-12T17:20:46.579Z,74.90
2018-09-12T17:23:14.979Z,75.20
2018-09-12T17:25:43.437Z,77.10
2018-09-12T17:28:12.183Z,77.20
2018-09-12T17:30:40.602Z,78.70
2018-09-12T17:33:09.185Z,79.90
2018-09-12T17:35:37.609Z,86.30
2018-09-12T17:38:06.288Z,91.20
2018-09-12T17:40:34.868Z,93.00
2018-09-12T17:43:03.289Z,94.00
2018-09-12T17:45:31.799Z,94.90
2018-09-12T17:48:00.377Z,95.60
2018-09-12T17:50:28.890Z,96.00
2018-09-12T17:52:57.259Z,96.40
2018-09-12T17:55:25.972Z,97.00
2018-09-12T17:57:54.502Z,97.20
2018-09-12T18:00:23.058Z,97.60
2018-09-12T18:02:51.458Z,98.50
2018-09-12T18:05:19.802Z,98.40
2018-09-12T18:07:48.268Z,98.70
2018-09-12T18:10:16.630Z,99.10
2018-09-12T18:12:45.022Z,99.50
2018-09-12T18:15:13.425Z,99.80
2018-09-12T18:17:41.848Z,99.90
2018-09-12T18:20:10.230Z,99.90
2018-09-12T18:22:38.607Z,99.90
2018-09-12T18:25:07.045Z,99.90
2018-09-12T18:27:35.493Z,99.90
2018-09-12T18:30:04.289Z,99.90
2018-09-12T18:32:32.662Z,99.90
2018-09-12T18:35:01.031Z,99.90
2018-09-12T18:37:29.413Z,99.90
2018-09-12T18:39:57.833Z,99.90
2018-09-12T18:42:26.200Z,99.90
2018-09-12T18:44:54.589Z,99.90
2018-09-12T18:47:23.069Z,99.90
2018-09-12T18:49:51.491Z,99.90
2018-09-12T18:52:20.316Z,99.90
2018-09-12T18:54:48.824Z,99.90
2018-09-12T18:57:17.444Z,99.90
2018-09-12T18:59:46.028Z,99.90
2018-09-12T19:02:14.495Z,99.90
2018-09-12T19:04:42.887Z,99.90
2018-09-12T19:07:11.359Z,99.90
2018-09-12T19:09:39.733Z,99.90
2018-09-12T19:12:08.837Z,99.90
2018-09-12T19:14:37.223Z,99.90
2018-09-12T19:17:05.719Z,99.90
2018-09-12T19:19:34.220Z,99.90
2018-09-12T19:22:02.630Z,99.90
2018-09-12T19:24:31.690Z,99.90
2018-09-12T19:27:00.639Z,99.90
2018-09-12T19:29:29.104Z,99.90
2018-09-12T19:31:57.556Z,99.90
2018-09-12T19:34:26.228Z,99.90
2018-09-12T19:36:54.632Z,99.90
2018-09-12T19:39:23.074Z,99.90
2018-09-12T19:41:51.871Z,99.90
2018-09-12T19:44:20.288Z,99.90
2018-09-12T19:46:48.816Z,99.90
2018-09-12T19:49:17.244Z,99.90
2018-09-12T19:51:45.592Z,99.90
2018-09-12T19:54:13.962Z,99.90
2018-09-12T19:56:42.979Z,99.90
2018-09-12T19:59:11.654Z,99.90
2018-09-12T20:01:40.078Z,99.90
2018-09-12T20:04:08.439Z,99.90
2018-09-12T20:06:36.786Z,99.90
2018-09-12T20:09:07.831Z,99.90
2018-09-12T20:11:36.409Z,99.90
2018-09-12T20:14:04.850Z,99.90
2018-09-12T20:16:33.389Z,99.90
2018-09-12T20:19:02.790Z,99.90
2018-09-12T20:21:31.737Z,99.90
2018-09-12T20:24:00.863Z,99.90
2018-09-12T20:26:29.115Z,99.90
2018-09-12T20:28:57.648Z,99.90
2018-09-12T20:31:26.171Z,99.90
2018-09-12T20:33:54.642Z,99.90
2018-09-12T20:36:23.866Z,99.90
2018-09-12T20:38:52.299Z,99.90
2018-09-12T20:41:21.306Z,99.90
2018-09-12T20:43:50.227Z,99.90
2018-09-12T20:46:18.626Z,99.90
2018-09-12T20:48:48.218Z,99.90
2018-09-12T20:51:16.558Z,99.90
2018-09-12T20:53:44.967Z,99.90
2018-09-12T20:56:13.334Z,99.90
2018-09-12T20:58:41.793Z,99.90
2018-09-12T21:01:10.142Z,99.90
2018-09-12T21:03:38.496Z,99.90
2018-09-12T21:06:06.865Z,99.90
2018-09-12T21:08:35.218Z,99.90
2018-09-12T21:11:03.576Z,99.90
2018-09-12T21:13:31.971Z,99.90
2018-09-12T21:16:00.327Z,99.90
2018-09-12T21:18:30.955Z,99.90
2018-09-12T21:20:59.294Z,99.90
2018-09-12T21:23:27.700Z,99.90
2018-09-12T21:25:56.089Z,99.90
2018-09-12T21:28:24.447Z,99.90
2018-09-12T21:30:52.804Z,99.90
2018-09-12T21:33:21.209Z,99.90
2018-09-12T21:35:49.664Z,99.90
2018-09-12T21:38:18.131Z,99.90
2018-09-12T21:40:46.609Z,99.90
2018-09-12T21:43:14.993Z,99.90
2018-09-12T21:45:43.730Z,99.90
2018-09-12T21:48:12.356Z,99.90
2018-09-12T21:50:40.714Z,99.90
2018-09-12T21:53:09.062Z,99.90
2018-09-12T21:55:37.519Z,99.90
2018-09-12T21:58:06.432Z,99.90
2018-09-12T22:00:34.849Z,99.90
2018-09-12T22:03:03.292Z,99.90
2018-09-12T22:05:31.657Z,99.90
2018-09-12T22:08:00.059Z,99.90
2018-09-12T22:10:28.527Z,99.90
2018-09-12T22:12:56.864Z,99.90
2018-09-12T22:15:25.267Z,99.90
2018-09-12T22:17:53.793Z,99.90
2018-09-12T22:20:22.522Z,99.90
2018-09-12T22:22:50.836Z,99.90
2018-09-12T22:25:19.244Z,99.90
2018-09-12T22:27:47.591Z,99.90
2018-09-12T22:30:16.014Z,99.90
2018-09-12T22:32:44.372Z,99.90
2018-09-12T22:35:12.732Z,99.90
2018-09-12T22:37:41.108Z,99.90
2018-09-12T22:40:09.719Z,99.90
2018-09-12T22:42:38.070Z,99.90
2018-09-12T22:45:06.928Z,99.90
2018-09-12T22:47:35.847Z,99.90
2018-09-12T22:50:04.697Z,99.90
2018-09-12T22:52:33.049Z,99.90
2018-09-12T22:55:01.411Z,99.90
2018-09-12T22:57:29.920Z,99.90
2018-09-12T22:59:58.324Z,99.90
2018-09-12T23:02:26.666Z,99.90
2018-09-12T23:04:55.012Z,99.90
2018-09-12T23:07:23.402Z,99.90
2018-09-12T23:09:51.788Z,99.90
2018-09-12T23:12:20.130Z,99.90
2018-09-12T23:14:48.476Z,99.90
2018-09-12T23:17:17.091Z,99.90
2018-09-12T23:19:45.466Z,99.90
2018-09-12T23:22:13.829Z,99.90
2018-09-12T23:24:42.146Z,99.90
2018-09-12T23:27:10.516Z,99.90
2018-09-12T23:29:38.867Z,99.90
2018-09-12T23:32:07.185Z,99.90
2018-09-12T23:34:35.559Z,99.90
2018-09-12T23:37:03.950Z,99.90
2018-09-12T23:39:32.299Z,99.90
2018-09-12T23:42:00.695Z,99.90
2018-09-12T23:44:29.063Z,99.90
2018-09-12T23:46:57.588Z,99.90
2018-09-12T23:49:25.959Z,99.90
2018-09-12T23:51:54.384Z,99.90
2018-09-12T23:54:22.771Z,99.90
2018-09-12T23:56:51.123Z,99.90
2018-09-12T23:59:19.471Z,99.90
